createdAt,value
2022-09-15T00:09:42.339Z,25.62
2022-09-15T00:19:49.173Z,25.59
2022-09-15T00:29:55.995Z,25.58
2022-09-15T00:40:02.689Z,25.56
2022-09-15T00:50:09.771Z,25.53
2022-09-15T01:00:16.661Z,25.51
2022-09-15T01:10:23.704Z,25.49
2022-09-15T01:20:30.502Z,25.48
2022-09-15T01:30:37.597Z,25.47
2022-09-15T01:40:44.694Z,25.45
2022-09-15T01:50:51.547Z,25.43
2022-09-15T02:00:58.637Z,25.43
2022-09-15T02:11:06.033Z,25.42
2022-09-15T02:21:12.499Z,25.40
2022-09-15T02:31:19.423Z,25.38
2022-09-15T02:41:26.858Z,25.35
2022-09-15T02:51:33.908Z,25.35
2022-09-15T03:03:00.634Z,25.34
2022-09-15T03:13:06.633Z,25.31
2022-09-15T03:23:13.491Z,25.31
2022-09-15T03:33:20.442Z,25.32
2022-09-15T03:43:27.313Z,25.30
2022-09-15T03:53:34.508Z,25.30
2022-09-15T04:03:46.386Z,25.27
2022-09-15T04:13:53.661Z,25.28
2022-09-15T04:24:00.748Z,25.27
2022-09-15T04:34:07.605Z,25.27
2022-09-15T04:44:14.898Z,25.28
2022-09-15T04:54:21.619Z,25.25
2022-09-15T05:04:28.674Z,25.24
2022-09-15T05:14:35.603Z,25.24
2022-09-15T05:24:42.738Z,25.23
2022-09-15T05:34:49.854Z,25.21
2022-09-15T05:44:56.757Z,25.19
2022-09-15T05:55:03.554Z,25.20
2022-09-15T06:05:10.072Z,25.19
2022-09-15T06:15:17.001Z,25.17
2022-09-15T06:25:23.802Z,25.17
2022-09-15T06:35:30.018Z,25.17
2022-09-15T06:45:37.111Z,25.15
2022-09-15T06:55:44.001Z,25.14
2022-09-15T07:05:51.036Z,25.10
2022-09-15T07:15:58.293Z,25.25
2022-09-15T07:26:05.701Z,25.36
2022-09-15T07:36:12.712Z,25.37
2022-09-15T07:46:19.260Z,25.39
2022-09-15T07:56:25.689Z,25.44
2022-09-15T08:06:32.951Z,25.45
2022-09-15T08:16:40.153Z,25.46
2022-09-15T08:26:46.938Z,25.48
2022-09-15T08:36:54.510Z,25.49
2022-09-15T08:47:01.627Z,25.53
2022-09-15T08:57:08.792Z,25.57
2022-09-15T09:07:15.665Z,25.59
2022-09-15T09:17:22.607Z,25.58
2022-09-15T09:27:29.617Z,25.59
2022-09-15T09:37:37.152Z,25.62
2022-09-15T09:47:44.154Z,25.63
2022-09-15T09:57:51.317Z,25.65
2022-09-15T10:07:57.953Z,25.65
2022-09-15T10:18:04.687Z,25.67
2022-09-15T10:28:11.822Z,25.60
2022-09-15T10:38:18.990Z,25.63
2022-09-15T10:48:26.042Z,25.64
2022-09-15T10:58:32.848Z,25.62
2022-09-15T11:08:39.922Z,25.65
2022-09-15T11:18:46.565Z,25.56
2022-09-15T11:28:53.646Z,25.65
2022-09-15T11:39:00.283Z,25.69
2022-09-15T11:49:06.568Z,25.73
2022-09-15T11:59:13.479Z,25.64
2022-09-15T12:09:20.278Z,25.71
2022-09-15T12:19:27.360Z,25.81
2022-09-15T12:29:36.909Z,25.70
2022-09-15T12:39:46.716Z,25.74
2022-09-15T12:49:53.852Z,25.63
2022-09-15T13:00:00.262Z,25.67
2022-09-15T13:10:07.226Z,25.67
2022-09-15T13:20:15.393Z,25.67
2022-09-15T13:30:22.425Z,25.63
2022-09-15T13:40:29.175Z,25.60
2022-09-15T13:50:36.601Z,25.55
2022-09-15T14:00:43.444Z,25.56
2022-09-15T14:10:50.811Z,25.60
2022-09-15T14:20:59.162Z,25.60
2022-09-15T14:31:06.973Z,25.67
2022-09-15T14:41:13.690Z,25.59
2022-09-15T14:51:20.824Z,25.68
2022-09-15T15:01:27.498Z,25.65
2022-09-15T15:11:33.892Z,25.64
2022-09-15T15:21:40.559Z,25.66
2022-09-15T15:31:48.136Z,25.64
2022-09-15T15:41:54.867Z,25.63
2022-09-15T15:52:02.080Z,25.69
2022-09-15T16:03:27.930Z,25.69
2022-09-15T16:13:33.865Z,25.69
2022-09-15T16:23:40.653Z,25.69
2022-09-15T16:33:47.692Z,25.67
2022-09-15T16:43:54.914Z,25.70
2022-09-15T16:54:01.690Z,25.65
2022-09-15T17:04:08.546Z,25.79
2022-09-15T17:14:15.671Z,25.85
2022-09-15T17:24:22.625Z,25.86
2022-09-15T17:34:29.831Z,25.88
2022-09-15T17:44:37.783Z,25.87
2022-09-15T17:54:44.301Z,25.73
2022-09-15T18:04:51.074Z,25.70
2022-09-15T18:14:58.062Z,25.69
2022-09-15T18:25:05.321Z,25.69
2022-09-15T18:35:16.338Z,25.71
2022-09-15T18:45:24.080Z,25.72
2022-09-15T18:55:31.390Z,25.73
2022-09-15T19:05:38.279Z,25.75
2022-09-15T19:15:45.308Z,25.77
2022-09-15T19:25:52.951Z,25.78
2022-09-15T19:36:17.177Z,25.79
2022-09-15T19:46:10.680Z,25.82
2022-09-15T19:56:21.716Z,25.82
2022-09-15T20:06:32.246Z,25.84
2022-09-15T20:16:39.083Z,25.82
2022-09-15T20:26:46.152Z,25.81
2022-09-15T20:36:53.183Z,25.83
2022-09-15T20:47:00.015Z,25.84
2022-09-15T20:57:06.739Z,25.82
2022-09-15T21:07:13.780Z,25.84
2022-09-15T21:17:20.728Z,25.80
2022-09-15T21:27:26.987Z,25.91
2022-09-15T21:37:34.148Z,25.85
2022-09-15T21:47:40.857Z,25.81
2022-09-15T21:57:47.668Z,25.72
2022-09-15T22:07:54.432Z,25.65
2022-09-15T22:18:01.293Z,25.59
2022-09-15T22:28:08.275Z,25.59
2022-09-15T22:38:15.268Z,25.52
2022-09-15T22:48:22.211Z,25.50
2022-09-15T22:58:29.174Z,25.46
2022-09-15T23:08:36.198Z,25.42
2022-09-15T23:18:43.329Z,25.41
2022-09-15T23:28:50.459Z,25.36
2022-09-15T23:38:57.318Z,25.33
2022-09-15T23:49:04.413Z,25.32
2022-09-15T23:59:11.462Z,25.32
